• Join FlightAware (Why Join?)
  • Login
  • US Flag GB Flag 
23:46 EST


 

Airport Tracker/Info


-or-


 

Live Flight TrackerFlight Track Log ✈ DAL268 ✈ 27-Apr-2013 ✈ KATL - KJFK

Flight Track Log - Related Links

Times and Time Zones

All times are in EDT time to prevent confusion due to time zone crossing. See the DAL268 flight status page for this flight to view local times or setup timezone preferences in your user account.

Time Position Orientation Groundspeed Altitude Reporting Facility
EDT Latitude Longitude Course Direction KTS MPH feet Rate Location/Type
18:25 33.6333 -84.3833 64° Northeast 179 206 2,300  Level Atlanta TRACON
18:26 33.6333 -84.3000 90° East 244 281 4,000 2,100 Climbing Atlanta TRACON
18:27 33.8632 -84.1313 101° East  Level Estimated
18:27 33.6333 -84.2167 90° East 276 318 6,600  Level Atlanta TRACON
18:28 33.8063 -84.0157 121° Southeast  Level FlightAware Approximate
18:28 33.6356 -84.1061 89° East 301 346 8,800  Level Atlanta Center
18:29 33.7493 -83.9002 121° Southeast  Level FlightAware Approximate
18:29 33.6419 -83.9989 86° East 309 356 11,300  Level Atlanta Center
18:30 33.8261 -83.8028 64° Northeast  Level Estimated
18:30 33.6500 -83.8817 85° East 335 386 12,700  Level Atlanta Center
18:31 33.6583 -83.7517 86° East 366 421 14,700 2,100 Climbing Atlanta Center
18:32 33.6725 -83.6169 83° East 397 457 16,900 1,920 Climbing Atlanta Center
18:33 33.7242 -83.4969 63° Northeast 404 465 18,600 1,380 Climbing Atlanta Center
18:34 33.7778 -83.3617 64° Northeast 428 493 19,700 1,140 Climbing Atlanta Center
18:35 33.8292 -83.2236 66° East 447 514 20,900 1,260 Climbing Atlanta Center
18:36 33.8906 -83.0803 63° Northeast 467 537 22,300 1,260 Climbing Atlanta Center
18:37 33.9439 -82.9469 64° Northeast 475 547 23,500 1,380 Climbing Atlanta Center
18:38 34.0031 -82.7958 65° Northeast 493 567 25,100 1,680 Climbing Atlanta Center
18:39 34.0597 -82.6497 65° Northeast 488 562 26,900 1,680 Climbing Atlanta Center
18:40 34.1186 -82.5056 64° Northeast 483 556 28,500 1,500 Climbing Atlanta Center
18:41 34.1792 -82.3464 65° Northeast 478 550 30,000 720 Climbing Atlanta Center
18:42 34.2333 -82.2022 66° East 466 536 30,000  Level Atlanta Center
18:43 34.2981 -82.0625 61° Northeast 466 536 30,000  Level Atlanta Center
18:44 34.3667 -81.9275 58° Northeast 472 543 30,000 180 Level Atlanta Center
18:45 34.4311 -81.7947 59° Northeast 472 543 30,400 540 Climbing Atlanta Center
18:46 34.5017 -81.6594 58° Northeast 467 537 31,100 720 Climbing Atlanta Center
18:47 34.5700 -81.5239 58° Northeast 467 537 31,900 720 Climbing Atlanta Center
18:48 34.6317 -81.3856 62° Northeast 467 537 32,600 540 Climbing Atlanta Center
18:49 34.6936 -81.2650 58° Northeast 467 537 33,000 180 Climbing Atlanta Center
18:50 34.7614 -81.1286 59° Northeast 467 537 33,000  Level Atlanta Center
18:51 34.8272 -80.9922 60° Northeast 467 537 33,000  Level Atlanta Center
18:52 34.8944 -80.8506 60° Northeast 479 551 33,000  Level Atlanta Center
18:53 34.9639 -80.7111 59° Northeast 479 551 33,000  Level Atlanta Center
18:54 35.0328 -80.5686 59° Northeast 483 556 33,000  Level Atlanta Center
18:55 35.0978 -80.4314 60° Northeast 476 548 33,000  Level Atlanta Center
18:57 35.2483 -80.1142 60° Northeast 493 567 33,000  Level Washington Center
18:58 35.3161 -79.9778 59° Northeast 475 547 33,000  Level Washington Center
18:59 35.3819 -79.8336 61° Northeast 475 547 33,000  Level Washington Center
19:00 35.4494 -79.6919 60° Northeast 475 547 33,000  Level Washington Center
19:01 35.5147 -79.5525 60° Northeast 475 547 33,000  Level Washington Center
19:02 35.5772 -79.4228 59° Northeast 475 547 33,000  Level Washington Center
19:03 35.6489 -79.2728 60° Northeast 469 540 33,000  Level Washington Center
19:04 35.7156 -79.1300 60° Northeast 469 540 33,000  Level Washington Center
19:05 35.7803 -78.9869 61° Northeast 469 540 33,000  Level Washington Center
19:06 35.8469 -78.8464 60° Northeast 469 540 33,000  Level Washington Center
19:07 35.8867 -78.6864 73° East 475 547 33,000  Level Washington Center
19:08 35.9033 -78.5178 83° East 475 547 33,000  Level Washington Center
19:09 35.9178 -78.3492 84° East 488 562 33,000  Level Washington Center
19:10 35.9361 -78.1778 82° East 488 562 33,000  Level Washington Center
19:11 35.9497 -78.0319 83° East 493 567 33,000  Level Washington Center
19:12 35.9656 -77.8581 84° East 499 574 33,000  Level Washington Center
19:13 35.9917 -77.6919 79° East 499 574 33,000  Level Washington Center
19:14 36.0689 -77.5603 54° Northeast 477 549 33,000  Level Washington Center
19:15 36.1483 -77.4311 53° Northeast 467 537 33,000  Level Washington Center
19:16 36.2336 -77.2942 52° Northeast 461 531 33,000  Level Washington Center
19:17 36.3250 -77.1775 46° Northeast 461 531 33,000  Level Washington Center
19:18 36.4244 -77.0761 39° Northeast 454 522 33,000  Level Washington Center
19:19 36.5256 -76.9800 37° Northeast 454 522 33,000  Level Washington Center
19:20 36.6247 -76.8833 38° Northeast 454 522 33,000  Level Washington Center
19:21 36.7258 -76.7839 38° Northeast 454 522 33,000  Level Washington Center
19:22 36.8292 -76.6844 38° Northeast 454 522 33,000  Level Washington Center
19:23 36.9281 -76.5897 37° Northeast 454 522 33,000  Level Washington Center
19:24 37.0269 -76.4869 40° Northeast 454 522 33,000  Level Washington Center
19:25 37.1172 -76.3994 38° Northeast 454 522 33,000  Level Washington Center
19:26 37.2181 -76.3011 38° Northeast 454 522 33,000  Level Washington Center
19:27 37.3164 -76.2028 38° Northeast 454 522 33,000  Level Washington Center
19:28 37.4169 -76.1122 36° Northeast 454 522 33,000  Level Washington Center
19:29 37.5175 -76.0108 39° Northeast 454 522 33,000  Level Washington Center
19:30 37.6200 -75.9117 37° Northeast 454 522 33,000  Level Washington Center
19:31 37.7183 -75.8122 39° Northeast 454 522 33,000 -60 Level Washington Center
19:32 37.8164 -75.7128 39° Northeast 454 522 32,900  Descending Washington Center
19:33 37.9144 -75.6156 38° Northeast 449 517 33,000  Climbing Washington Center
19:34 38.0147 -75.5128 39° Northeast 449 517 33,000  Level Washington Center
19:35 38.1167 -75.4333 32° Northeast 444 511 33,000  Level Washington Center
19:36 38.2250 -75.3644 27° Northeast 428 493 33,000  Level Washington Center
19:37 38.3292 -75.2925 28° Northeast 418 481 33,000 -60 Level Washington Center
19:38 38.4333 -75.2286 26° Northeast 418 481 32,900  Descending Washington Center
19:39 38.5394 -75.1644 25° Northeast 418 481 33,000  Climbing Washington Center
19:40 38.6433 -75.0947 28° Northeast 413 475 33,000  Level Washington Center
19:41 38.7494 -75.0328 24° Northeast 413 475 33,000  Level Washington Center
19:42 38.8533 -74.9653 27° Northeast 413 475 33,000  Level Washington Center
19:43 38.9569 -74.8975 27° Northeast 413 475 33,000 -840 Level Washington Center
19:44 39.0589 -74.8297 27° Northeast 408 470 31,300 -2,280 Descending Washington Center
19:45 39.1603 -74.7431 34° Northeast 413 475 28,500 -2,880 Descending Washington Center
19:46 39.2533 -74.6400 41° Northeast 424 488 25,700 -2,880 Descending Washington Center
19:47 39.3208 -74.5681 39° Northeast 425 489 23,900 -2,760 Descending New York Center
19:48 39.4072 -74.4708 41° Northeast 431 496 21,300 -2,520 Descending New York Center
19:49 39.4828 -74.3858 41° Northeast 413 475 18,900 -1,680 Descending New York Center
19:50 39.5647 -74.2958 40° Northeast 397 457 18,000 -540 Descending New York Center
19:51 39.6575 -74.1981 39° Northeast 391 450 17,900 -1,200 Descending New York Center
19:52 39.7372 -74.1075 41° Northeast 383 441 15,700 -2,220 Descending New York Center
19:53 39.8167 -74.0194 40° Northeast 383 441 13,500 -2,220 Descending New York Center
19:54 39.8914 -73.9581 32° Northeast 362 417 11,400 -1,320 Descending New York Center
19:55 39.9764 -73.8942 30° Northeast 327 376 11,000 -240 Descending New York Center
19:56 40.0444 -73.8456 29° Northeast 291 335 11,000 -300 Level New York Center
19:57 40.1125 -73.7944 30° Northeast 278 320 10,500 -1,080 Descending New York Center
19:58 40.1833 -73.7333 33° Northeast 263 303 8,700 -1,620 Descending New York TRACON
19:59 40.2500 -73.7000 21° North 255 293 7,100 -900 Descending New York TRACON
20:00 40.3167 -73.6667 21° North 259 298 7,000  Descending New York TRACON
20:01 40.3833 -73.6167 30° Northeast 260 299 7,100  Climbing New York TRACON
20:02 40.4333 -73.5833 27° Northeast 262 302 7,100 -120 Level New York TRACON
20:03 40.5000 -73.5333 30° Northeast 261 300 6,900 -960 Descending New York TRACON
20:04 40.5500 -73.4833 37° Northeast 257 296 5,300 -1,740 Descending New York TRACON
20:05 40.6167 -73.4667 11° North 243 280 3,700 -1,200 Descending New York TRACON
20:06 40.6833 -73.4833 349° North 234 269 3,000 -360 Descending New York TRACON
20:07 40.7167 -73.5500 303° West 214 246 3,000 -480 Level New York TRACON
20:08 40.7500 -73.6000 311° West 215 247 2,100 -1,020 Descending New York TRACON